sensor_id;sensor_type;location;lat;lon;timestamp;pressure;altitude;pressure_sealevel;temperature;humidity
38812;BME280;24553;51.640;-0.752;2023-02-02T00:00:42;101856.59;;;8.42;100.00
38812;BME280;24553;51.640;-0.752;2023-02-02T00:03:07;101850.81;;;8.57;100.00
38812;BME280;24553;51.640;-0.752;2023-02-02T00:05:35;101848.06;;;8.48;100.00
38812;BME280;24553;51.640;-0.752;2023-02-02T00:08:00;101858.81;;;8.47;100.00
38812;BME280;24553;51.640;-0.752;2023-02-02T00:10:25;101862.00;;;8.50;100.00
38812;BME280;24553;51.640;-0.752;2023-02-02T00:12:50;101856.97;;;8.57;100.00
38812;BME280;24553;51.640;-0.752;2023-02-02T00:15:16;101855.16;;;8.58;100.00
38812;BME280;24553;51.640;-0.752;2023-02-02T00:17:41;101852.13;;;8.80;100.00
38812;BME280;24553;51.640;-0.752;2023-02-02T00:20:07;101840.53;;;8.91;100.00
38812;BME280;24553;51.640;-0.752;2023-02-02T00:22:32;101839.59;;;8.82;100.00
38812;BME280;24553;51.640;-0.752;2023-02-02T00:24:58;101836.81;;;8.84;100.00
38812;BME280;24553;51.640;-0.752;2023-02-02T00:27:23;101834.88;;;8.86;100.00
38812;BME280;24553;51.640;-0.752;2023-02-02T00:29:49;101838.56;;;9.21;100.00
38812;BME280;24553;51.640;-0.752;2023-02-02T00:32:18;101836.19;;;9.00;100.00
38812;BME280;24553;51.640;-0.752;2023-02-02T00:34:44;101840.88;;;9.06;100.00
38812;BME280;24553;51.640;-0.752;2023-02-02T00:37:09;101836.72;;;8.76;100.00
38812;BME280;24553;51.640;-0.752;2023-02-02T00:39:34;101852.63;;;8.66;100.00
38812;BME280;24553;51.640;-0.752;2023-02-02T00:42:00;101842.63;;;8.60;100.00
38812;BME280;24553;51.640;-0.752;2023-02-02T00:44:25;101847.06;;;8.59;100.00
38812;BME280;24553;51.640;-0.752;2023-02-02T00:47:09;101842.78;;;8.48;100.00
38812;BME280;24553;51.640;-0.752;2023-02-02T00:49:34;101836.25;;;8.52;100.00
38812;BME280;24553;51.640;-0.752;2023-02-02T00:52:00;101830.78;;;8.54;100.00
38812;BME280;24553;51.640;-0.752;2023-02-02T00:54:25;101830.13;;;8.52;100.00
38812;BME280;24553;51.640;-0.752;2023-02-02T00:56:51;101828.84;;;8.56;100.00
38812;BME280;24553;51.640;-0.752;2023-02-02T00:59:16;101823.25;;;8.59;100.00
38812;BME280;24553;51.640;-0.752;2023-02-02T01:01:41;101825.91;;;8.59;100.00
38812;BME280;24553;51.640;-0.752;2023-02-02T01:04:07;101818.25;;;8.66;100.00
38812;BME280;24553;51.640;-0.752;2023-02-02T01:06:32;101803.75;;;8.70;100.00
38812;BME280;24553;51.640;-0.752;2023-02-02T01:08:58;101796.25;;;8.65;100.00
38812;BME280;24553;51.640;-0.752;2023-02-02T01:11:23;101804.03;;;8.67;100.00
38812;BME280;24553;51.640;-0.752;2023-02-02T01:13:50;101815.72;;;8.64;100.00
38812;BME280;24553;51.640;-0.752;2023-02-02T01:16:15;101820.22;;;8.54;100.00
38812;BME280;24553;51.640;-0.752;2023-02-02T01:18:41;101821.63;;;8.58;100.00
38812;BME280;24553;51.640;-0.752;2023-02-02T01:21:08;101819.38;;;8.63;100.00
38812;BME280;24553;51.640;-0.752;2023-02-02T01:23:35;101822.44;;;8.59;100.00
38812;BME280;24553;51.640;-0.752;2023-02-02T01:26:03;101824.13;;;8.60;100.00
38812;BME280;24553;51.640;-0.752;2023-02-02T01:28:29;101837.44;;;8.68;100.00
38812;BME280;24553;51.640;-0.752;2023-02-02T01:30:55;101815.56;;;8.76;100.00
38812;BME280;24553;51.640;-0.752;2023-02-02T01:33:22;101831.16;;;8.69;100.00
38812;BME280;24553;51.640;-0.752;2023-02-02T01:35:50;101815.88;;;8.72;100.00
38812;BME280;24553;51.640;-0.752;2023-02-02T01:38:15;101818.81;;;8.87;100.00
38812;BME280;24553;51.640;-0.752;2023-02-02T01:40:59;101811.38;;;9.01;100.00
38812;BME280;24553;51.640;-0.752;2023-02-02T01:46:11;101813.25;;;8.90;100.00
38812;BME280;24553;51.640;-0.752;2023-02-02T01:48:40;101819.03;;;8.76;100.00
38812;BME280;24553;51.640;-0.752;2023-02-02T01:51:09;101821.16;;;8.72;100.00
38812;BME280;24553;51.640;-0.752;2023-02-02T01:53:36;101810.31;;;8.66;100.00
38812;BME280;24553;51.640;-0.752;2023-02-02T01:56:04;101816.47;;;8.84;100.00
38812;BME280;24553;51.640;-0.752;2023-02-02T01:58:37;101819.47;;;8.99;100.00
38812;BME280;24553;51.640;-0.752;2023-02-02T02:01:04;101823.38;;;8.95;100.00
38812;BME280;24553;51.640;-0.752;2023-02-02T02:03:31;101827.81;;;9.04;100.00
38812;BME280;24553;51.640;-0.752;2023-02-02T02:06:00;101817.56;;;9.19;100.00
38812;BME280;24553;51.640;-0.752;2023-02-02T02:08:29;101818.84;;;9.33;100.00
38812;BME280;24553;51.640;-0.752;2023-02-02T02:10:56;101809.53;;;9.47;100.00
38812;BME280;24553;51.640;-0.752;2023-02-02T02:13:23;101809.31;;;9.40;100.00
38812;BME280;24553;51.640;-0.752;2023-02-02T02:16:19;101815.06;;;9.35;100.00
38812;BME280;24553;51.640;-0.752;2023-02-02T02:19:13;101798.81;;;9.30;100.00
38812;BME280;24553;51.640;-0.752;2023-02-02T02:22:17;101805.97;;;9.20;100.00
38812;BME280;24553;51.640;-0.752;2023-02-02T02:34:06;101839.66;;;7.96;100.00
38812;BME280;24553;51.640;-0.752;2023-02-02T02:39:31;101836.91;;;7.98;100.00
38812;BME280;24553;51.640;-0.752;2023-02-02T02:42:03;101835.22;;;7.87;100.00
38812;BME280;24553;51.640;-0.752;2023-02-02T02:44:32;101831.19;;;7.73;100.00
38812;BME280;24553;51.640;-0.752;2023-02-02T02:46:57;101820.09;;;7.60;100.00
38812;BME280;24553;51.640;-0.752;2023-02-02T02:49:23;101812.88;;;7.52;100.00
38812;BME280;24553;51.640;-0.752;2023-02-02T02:51:52;101817.72;;;7.47;100.00
38812;BME280;24553;51.640;-0.752;2023-02-02T02:54:23;101817.72;;;7.37;100.00
38812;BME280;24553;51.640;-0.752;2023-02-02T02:57:05;101813.56;;;7.45;100.00
38812;BME280;24553;51.640;-0.752;2023-02-02T02:59:47;101817.44;;;7.40;100.00
38812;BME280;24553;51.640;-0.752;2023-02-02T03:05:14;101824.75;;;7.08;100.00
38812;BME280;24553;51.640;-0.752;2023-02-02T03:07:45;101832.50;;;7.09;100.00
38812;BME280;24553;51.640;-0.752;2023-02-02T03:10:14;101837.25;;;7.15;100.00
38812;BME280;24553;51.640;-0.752;2023-02-02T03:12:50;101840.72;;;7.16;100.00
38812;BME280;24553;51.640;-0.752;2023-02-02T03:15:17;101841.00;;;7.13;100.00
38812;BME280;24553;51.640;-0.752;2023-02-02T03:17:43;101832.66;;;7.08;100.00
38812;BME280;24553;51.640;-0.752;2023-02-02T03:20:10;101838.34;;;7.03;100.00
38812;BME280;24553;51.640;-0.752;2023-02-02T03:22:35;101836.41;;;7.05;100.00
38812;BME280;24553;51.640;-0.752;2023-02-02T03:25:01;101843.34;;;7.06;100.00
38812;BME280;24553;51.640;-0.752;2023-02-02T03:27:27;101845.84;;;7.08;100.00
38812;BME280;24553;51.640;-0.752;2023-02-02T03:29:52;101840.16;;;7.12;100.00
38812;BME280;24553;51.640;-0.752;2023-02-02T03:32:18;101831.56;;;7.10;100.00
38812;BME280;24553;51.640;-0.752;2023-02-02T03:34:43;101837.81;;;7.19;100.00
38812;BME280;24553;51.640;-0.752;2023-02-02T03:37:09;101835.59;;;7.14;100.00
38812;BME280;24553;51.640;-0.752;2023-02-02T03:39:34;101842.50;;;7.06;100.00
38812;BME280;24553;51.640;-0.752;2023-02-02T03:41:59;101838.38;;;7.13;100.00
38812;BME280;24553;51.640;-0.752;2023-02-02T03:44:25;101846.13;;;7.14;100.00
38812;BME280;24553;51.640;-0.752;2023-02-02T03:46:53;101830.06;;;7.27;100.00
38812;BME280;24553;51.640;-0.752;2023-02-02T03:49:19;101827.72;;;7.34;100.00
38812;BME280;24553;51.640;-0.752;2023-02-02T03:51:45;101832.59;;;7.38;100.00
38812;BME280;24553;51.640;-0.752;2023-02-02T03:54:10;101840.75;;;7.35;100.00
38812;BME280;24553;51.640;-0.752;2023-02-02T03:56:35;101835.09;;;7.50;100.00
38812;BME280;24553;51.640;-0.752;2023-02-02T03:59:01;101828.97;;;7.59;100.00
38812;BME280;24553;51.640;-0.752;2023-02-02T04:01:27;101830.66;;;7.60;100.00
38812;BME280;24553;51.640;-0.752;2023-02-02T04:03:53;101822.75;;;7.70;100.00
38812;BME280;24553;51.640;-0.752;2023-02-02T04:06:19;101813.84;;;7.71;100.00
38812;BME280;24553;51.640;-0.752;2023-02-02T04:08:44;101818.13;;;7.72;100.00
38812;BME280;24553;51.640;-0.752;2023-02-02T04:11:10;101822.03;;;7.68;100.00
38812;BME280;24553;51.640;-0.752;2023-02-02T04:13:36;101827.72;;;7.63;100.00
38812;BME280;24553;51.640;-0.752;2023-02-02T04:16:01;101831.47;;;7.60;100.00
38812;BME280;24553;51.640;-0.752;2023-02-02T04:18:27;101839.28;;;7.62;100.00
38812;BME280;24553;51.640;-0.752;2023-02-02T04:21:00;101842.88;;;7.71;100.00
38812;BME280;24553;51.640;-0.752;2023-02-02T04:23:27;101840.66;;;7.76;100.00
38812;BME280;24553;51.640;-0.752;2023-02-02T04:25:52;101826.75;;;7.74;100.00
38812;BME280;24553;51.640;-0.752;2023-02-02T04:28:18;101835.22;;;7.58;100.00
38812;BME280;24553;51.640;-0.752;2023-02-02T04:30:44;101830.22;;;7.55;100.00
38812;BME280;24553;51.640;-0.752;2023-02-02T04:33:09;101822.47;;;7.43;100.00
38812;BME280;24553;51.640;-0.752;2023-02-02T04:35:34;101821.59;;;7.33;100.00
38812;BME280;24553;51.640;-0.752;2023-02-02T04:38:00;101822.13;;;7.27;100.00
38812;BME280;24553;51.640;-0.752;2023-02-02T04:40:25;101827.56;;;7.26;100.00
38812;BME280;24553;51.640;-0.752;2023-02-02T04:42:51;101824.94;;;7.26;100.00
38812;BME280;24553;51.640;-0.752;2023-02-02T04:45:16;101830.88;;;7.28;100.00
38812;BME280;24553;51.640;-0.752;2023-02-02T04:47:41;101825.91;;;7.44;100.00
38812;BME280;24553;51.640;-0.752;2023-02-02T04:50:07;101822.03;;;7.58;100.00
38812;BME280;24553;51.640;-0.752;2023-02-02T04:52:33;101831.63;;;7.78;100.00
38812;BME280;24553;51.640;-0.752;2023-02-02T04:54:59;101828.28;;;7.67;100.00
38812;BME280;24553;51.640;-0.752;2023-02-02T04:57:25;101827.31;;;7.68;100.00
38812;BME280;24553;51.640;-0.752;2023-02-02T04:59:50;101825.22;;;7.91;100.00
38812;BME280;24553;51.640;-0.752;2023-02-02T05:02:15;101825.63;;;7.76;100.00
38812;BME280;24553;51.640;-0.752;2023-02-02T05:04:41;101817.03;;;7.84;100.00
38812;BME280;24553;51.640;-0.752;2023-02-02T05:07:06;101824.13;;;7.54;100.00
38812;BME280;24553;51.640;-0.752;2023-02-02T05:09:32;101823.97;;;7.46;100.00
38812;BME280;24553;51.640;-0.752;2023-02-02T05:11:57;101821.47;;;7.45;100.00
38812;BME280;24553;51.640;-0.752;2023-02-02T05:14:22;101830.50;;;7.42;100.00
38812;BME280;24553;51.640;-0.752;2023-02-02T05:16:47;101826.75;;;7.45;100.00
38812;BME280;24553;51.640;-0.752;2023-02-02T05:19:14;101822.03;;;7.38;100.00
38812;BME280;24553;51.640;-0.752;2023-02-02T05:21:42;101830.66;;;7.60;100.00
38812;BME280;24553;51.640;-0.752;2023-02-02T05:24:09;101837.47;;;7.72;100.00
38812;BME280;24553;51.640;-0.752;2023-02-02T05:26:34;101836.88;;;7.59;100.00
38812;BME280;24553;51.640;-0.752;2023-02-02T05:29:00;101827.28;;;7.48;100.00
38812;BME280;24553;51.640;-0.752;2023-02-02T05:31:25;101833.44;;;7.49;100.00
38812;BME280;24553;51.640;-0.752;2023-02-02T05:33:50;101834.09;;;7.51;100.00
38812;BME280;24553;51.640;-0.752;2023-02-02T05:36:16;101827.84;;;7.42;100.00
38812;BME280;24553;51.640;-0.752;2023-02-02T05:38:41;101820.06;;;7.40;100.00
38812;BME280;24553;51.640;-0.752;2023-02-02T05:41:07;101825.91;;;7.44;100.00
38812;BME280;24553;51.640;-0.752;2023-02-02T05:43:32;101828.41;;;7.36;100.00
38812;BME280;24553;51.640;-0.752;2023-02-02T05:45:58;101824.66;;;7.29;100.00
38812;BME280;24553;51.640;-0.752;2023-02-02T05:48:25;101828.66;;;7.33;100.00
38812;BME280;24553;51.640;-0.752;2023-02-02T05:53:27;101824.94;;;7.26;100.00
38812;BME280;24553;51.640;-0.752;2023-02-02T05:55:53;101834.25;;;7.39;100.00
38812;BME280;24553;51.640;-0.752;2023-02-02T05:58:18;101835.22;;;7.38;100.00
38812;BME280;24553;51.640;-0.752;2023-02-02T06:00:43;101828.09;;;7.19;100.00
38812;BME280;24553;51.640;-0.752;2023-02-02T06:03:08;101828.50;;;7.05;100.00
38812;BME280;24553;51.640;-0.752;2023-02-02T06:05:34;101830.56;;;7.02;100.00
38812;BME280;24553;51.640;-0.752;2023-02-02T06:07:59;101834.53;;;6.86;100.00
38812;BME280;24553;51.640;-0.752;2023-02-02T06:10:24;101833.41;;;6.79;100.00
38812;BME280;24553;51.640;-0.752;2023-02-02T06:12:50;101823.25;;;6.74;100.00
38812;BME280;24553;51.640;-0.752;2023-02-02T06:15:15;101835.63;;;6.74;100.00
38812;BME280;24553;51.640;-0.752;2023-02-02T06:17:40;101839.69;;;6.88;100.00
38812;BME280;24553;51.640;-0.752;2023-02-02T06:20:06;101841.13;;;6.71;100.00
38812;BME280;24553;51.640;-0.752;2023-02-02T06:22:31;101849.00;;;6.61;100.00
38812;BME280;24553;51.640;-0.752;2023-02-02T06:24:57;101852.38;;;6.73;100.00
38812;BME280;24553;51.640;-0.752;2023-02-02T06:27:23;101851.63;;;6.92;100.00
38812;BME280;24553;51.640;-0.752;2023-02-02T06:29:48;101842.66;;;6.73;100.00
38812;BME280;24553;51.640;-0.752;2023-02-02T06:32:14;101842.84;;;6.51;100.00
38812;BME280;24553;51.640;-0.752;2023-02-02T06:34:39;101841.44;;;6.47;100.00
38812;BME280;24553;51.640;-0.752;2023-02-02T06:37:04;101843.34;;;6.45;100.00
38812;BME280;24553;51.640;-0.752;2023-02-02T06:39:30;101861.88;;;6.54;100.00
38812;BME280;24553;51.640;-0.752;2023-02-02T06:41:55;101861.78;;;6.66;100.00
38812;BME280;24553;51.640;-0.752;2023-02-02T06:44:21;101861.81;;;6.45;100.00
38812;BME280;24553;51.640;-0.752;2023-02-02T06:46:46;101862.28;;;6.29;100.00
38812;BME280;24553;51.640;-0.752;2023-02-02T06:49:12;101863.81;;;6.31;100.00
38812;BME280;24553;51.640;-0.752;2023-02-02T06:51:37;101865.44;;;6.74;100.00
38812;BME280;24553;51.640;-0.752;2023-02-02T06:54:03;101869.56;;;6.67;100.00
38812;BME280;24553;51.640;-0.752;2023-02-02T06:56:29;101865.16;;;6.47;100.00
38812;BME280;24553;51.640;-0.752;2023-02-02T06:58:54;101865.22;;;6.36;100.00
38812;BME280;24553;51.640;-0.752;2023-02-02T07:01:20;101880.38;;;6.64;100.00
38812;BME280;24553;51.640;-0.752;2023-02-02T07:03:48;101880.16;;;6.77;100.00
38812;BME280;24553;51.640;-0.752;2023-02-02T07:08:40;101866.03;;;6.57;100.00
38812;BME280;24553;51.640;-0.752;2023-02-02T07:11:06;101867.09;;;6.75;100.00
38812;BME280;24553;51.640;-0.752;2023-02-02T07:13:31;101868.69;;;6.88;100.00
38812;BME280;24553;51.640;-0.752;2023-02-02T07:15:57;101884.13;;;7.02;100.00
38812;BME280;24553;51.640;-0.752;2023-02-02T07:18:22;101871.81;;;7.12;100.00
38812;BME280;24553;51.640;-0.752;2023-02-02T07:20:48;101875.06;;;7.35;100.00
38812;BME280;24553;51.640;-0.752;2023-02-02T07:23:13;101882.28;;;7.43;100.00
38812;BME280;24553;51.640;-0.752;2023-02-02T07:25:38;101888.84;;;7.58;100.00
38812;BME280;24553;51.640;-0.752;2023-02-02T07:28:04;101880.38;;;7.74;100.00
38812;BME280;24553;51.640;-0.752;2023-02-02T07:30:29;101884.84;;;7.74;100.00
38812;BME280;24553;51.640;-0.752;2023-02-02T07:32:55;101893.47;;;7.76;100.00
38812;BME280;24553;51.640;-0.752;2023-02-02T07:35:21;101900.97;;;7.90;100.00
38812;BME280;24553;51.640;-0.752;2023-02-02T07:37:51;101896.53;;;7.81;100.00
38812;BME280;24553;51.640;-0.752;2023-02-02T07:40:17;101890.25;;;7.62;100.00
38812;BME280;24553;51.640;-0.752;2023-02-02T07:42:45;101889.69;;;7.59;100.00
38812;BME280;24553;51.640;-0.752;2023-02-02T07:45:11;101899.00;;;7.63;100.00
38812;BME280;24553;51.640;-0.752;2023-02-02T07:47:36;101887.63;;;7.62;100.00
38812;BME280;24553;51.640;-0.752;2023-02-02T07:50:01;101892.91;;;7.62;100.00
38812;BME280;24553;51.640;-0.752;2023-02-02T07:52:28;101894.97;;;7.59;100.00
38812;BME280;24553;51.640;-0.752;2023-02-02T07:54:54;101900.97;;;7.71;100.00
38812;BME280;24553;51.640;-0.752;2023-02-02T07:57:19;101904.31;;;7.73;100.00
38812;BME280;24553;51.640;-0.752;2023-02-02T07:59:45;101921.94;;;7.82;100.00
38812;BME280;24553;51.640;-0.752;2023-02-02T08:02:11;101919.59;;;7.98;100.00
38812;BME280;24553;51.640;-0.752;2023-02-02T08:04:36;101918.50;;;8.11;100.00
38812;BME280;24553;51.640;-0.752;2023-02-02T08:07:01;101922.34;;;8.26;100.00
38812;BME280;24553;51.640;-0.752;2023-02-02T08:09:27;101924.59;;;8.30;100.00
38812;BME280;24553;51.640;-0.752;2023-02-02T08:11:52;101930.03;;;8.29;100.00
38812;BME280;24553;51.640;-0.752;2023-02-02T08:14:17;101936.13;;;8.20;100.00
38812;BME280;24553;51.640;-0.752;2023-02-02T08:16:43;101949.75;;;8.15;100.00
38812;BME280;24553;51.640;-0.752;2023-02-02T08:19:09;101959.63;;;8.23;100.00
38812;BME280;24553;51.640;-0.752;2023-02-02T08:21:35;101958.53;;;8.35;100.00
38812;BME280;24553;51.640;-0.752;2023-02-02T08:24:01;101954.63;;;8.29;100.00
38812;BME280;24553;51.640;-0.752;2023-02-02T08:26:28;101952.00;;;8.29;100.00
38812;BME280;24553;51.640;-0.752;2023-02-02T08:28:57;101960.91;;;8.48;100.00
38812;BME280;24553;51.640;-0.752;2023-02-02T08:31:26;101957.03;;;8.52;100.00
38812;BME280;24553;51.640;-0.752;2023-02-02T08:33:52;101949.22;;;8.60;100.00
38812;BME280;24553;51.640;-0.752;2023-02-02T08:36:23;101953.38;;;8.63;100.00
38812;BME280;24553;51.640;-0.752;2023-02-02T08:38:49;101945.44;;;8.63;100.00
38812;BME280;24553;51.640;-0.752;2023-02-02T08:41:17;101946.16;;;8.65;100.00
38812;BME280;24553;51.640;-0.752;2023-02-02T08:43:44;101949.75;;;8.64;100.00
38812;BME280;24553;51.640;-0.752;2023-02-02T08:46:12;101941.72;;;8.46;100.00
38812;BME280;24553;51.640;-0.752;2023-02-02T08:48:38;101947.69;;;8.58;100.00
38812;BME280;24553;51.640;-0.752;2023-02-02T08:51:04;101956.56;;;8.57;100.00
38812;BME280;24553;51.640;-0.752;2023-02-02T08:53:30;101949.34;;;8.59;100.00
38812;BME280;24553;51.640;-0.752;2023-02-02T08:56:04;101945.84;;;8.68;100.00
38812;BME280;24553;51.640;-0.752;2023-02-02T08:58:31;101947.22;;;8.72;100.00
38812;BME280;24553;51.640;-0.752;2023-02-02T09:01:25;101935.63;;;8.83;100.00
38812;BME280;24553;51.640;-0.752;2023-02-02T09:03:55;101920.16;;;8.88;100.00
38812;BME280;24553;51.640;-0.752;2023-02-02T09:06:25;101928.38;;;8.94;100.00
38812;BME280;24553;51.640;-0.752;2023-02-02T09:08:51;101933.66;;;8.94;100.00
38812;BME280;24553;51.640;-0.752;2023-02-02T09:11:18;101930.22;;;8.84;100.00
38812;BME280;24553;51.640;-0.752;2023-02-02T09:13:46;101942.00;;;9.00;100.00
38812;BME280;24553;51.640;-0.752;2023-02-02T09:16:14;101949.75;;;9.11;100.00
38812;BME280;24553;51.640;-0.752;2023-02-02T09:18:40;101954.28;;;9.28;100.00
38812;BME280;24553;51.640;-0.752;2023-02-02T09:21:08;101956.44;;;9.43;100.00
38812;BME280;24553;51.640;-0.752;2023-02-02T09:23:36;101954.84;;;9.50;100.00
38812;BME280;24553;51.640;-0.752;2023-02-02T09:26:30;101945.53;;;9.73;100.00
38812;BME280;24553;51.640;-0.752;2023-02-02T09:28:58;101953.19;;;9.76;100.00
38812;BME280;24553;51.640;-0.752;2023-02-02T09:31:26;101958.69;;;9.83;100.00
38812;BME280;24553;51.640;-0.752;2023-02-02T09:33:52;101962.19;;;9.83;100.00
38812;BME280;24553;51.640;-0.752;2023-02-02T09:36:22;101954.84;;;9.95;100.00
38812;BME280;24553;51.640;-0.752;2023-02-02T09:38:49;101960.47;;;10.10;100.00
38812;BME280;24553;51.640;-0.752;2023-02-02T09:47:15;101959.03;;;10.34;100.00
38812;BME280;24553;51.640;-0.752;2023-02-02T09:55:12;101951.19;;;10.50;100.00
38812;BME280;24553;51.640;-0.752;2023-02-02T09:57:44;101953.34;;;10.73;100.00
38812;BME280;24553;51.640;-0.752;2023-02-02T10:00:36;101952.09;;;10.85;100.00
38812;BME280;24553;51.640;-0.752;2023-02-02T10:03:14;101945.53;;;10.97;100.00
38812;BME280;24553;51.640;-0.752;2023-02-02T10:05:53;101949.56;;;11.09;100.00
38812;BME280;24553;51.640;-0.752;2023-02-02T10:08:47;101951.16;;;10.94;100.00
38812;BME280;24553;51.640;-0.752;2023-02-02T10:11:56;101948.34;;;10.96;100.00
38812;BME280;24553;51.640;-0.752;2023-02-02T10:14:25;101947.88;;;11.00;100.00
38812;BME280;24553;51.640;-0.752;2023-02-02T10:16:53;101953.28;;;11.25;100.00
38812;BME280;24553;51.640;-0.752;2023-02-02T10:19:20;101968.69;;;11.55;100.00
38812;BME280;24553;51.640;-0.752;2023-02-02T10:22:06;101950.09;;;11.64;100.00
38812;BME280;24553;51.640;-0.752;2023-02-02T10:24:36;101958.41;;;11.61;100.00
38812;BME280;24553;51.640;-0.752;2023-02-02T10:27:04;101957.78;;;11.75;100.00
38812;BME280;24553;51.640;-0.752;2023-02-02T10:29:52;101970.06;;;11.68;100.00
38812;BME280;24553;51.640;-0.752;2023-02-02T10:32:26;101967.19;;;11.53;100.00
38812;BME280;24553;51.640;-0.752;2023-02-02T10:37:39;101950.31;;;11.70;100.00
38812;BME280;24553;51.640;-0.752;2023-02-02T10:46:22;101963.78;;;11.85;100.00
38812;BME280;24553;51.640;-0.752;2023-02-02T10:48:49;101961.53;;;12.07;100.00
38812;BME280;24553;51.640;-0.752;2023-02-02T10:51:22;101969.00;;;12.19;100.00
38812;BME280;24553;51.640;-0.752;2023-02-02T10:53:59;101961.00;;;11.95;100.00
38812;BME280;24553;51.640;-0.752;2023-02-02T10:56:35;101959.19;;;12.20;100.00
38812;BME280;24553;51.640;-0.752;2023-02-02T10:59:26;101964.84;;;12.41;100.00
38812;BME280;24553;51.640;-0.752;2023-02-02T11:01:54;101957.88;;;12.32;100.00
38812;BME280;24553;51.640;-0.752;2023-02-02T11:04:20;101970.66;;;12.20;100.00
38812;BME280;24553;51.640;-0.752;2023-02-02T11:07:04;101963.69;;;12.19;100.00
38812;BME280;24553;51.640;-0.752;2023-02-02T11:09:31;101954.69;;;11.88;100.00
38812;BME280;24553;51.640;-0.752;2023-02-02T11:12:09;101955.19;;;11.91;100.00
38812;BME280;24553;51.640;-0.752;2023-02-02T11:14:45;101956.88;;;12.00;100.00
38812;BME280;24553;51.640;-0.752;2023-02-02T11:17:22;101954.72;;;12.20;100.00
38812;BME280;24553;51.640;-0.752;2023-02-02T11:19:48;101945.22;;;12.26;100.00
38812;BME280;24553;51.640;-0.752;2023-02-02T11:25:01;101937.44;;;12.16;100.00
38812;BME280;24553;51.640;-0.752;2023-02-02T11:27:32;101952.22;;;12.19;100.00
38812;BME280;24553;51.640;-0.752;2023-02-02T11:30:10;101944.56;;;12.32;100.00
38812;BME280;24553;51.640;-0.752;2023-02-02T11:32:35;101951.72;;;12.07;100.00
38812;BME280;24553;51.640;-0.752;2023-02-02T11:35:17;101941.91;;;11.99;100.00
38812;BME280;24553;51.640;-0.752;2023-02-02T11:43:00;101927.13;;;12.13;100.00
38812;BME280;24553;51.640;-0.752;2023-02-02T11:45:38;101923.81;;;12.11;100.00
38812;BME280;24553;51.640;-0.752;2023-02-02T11:48:19;101910.81;;;12.00;100.00
38812;BME280;24553;51.640;-0.752;2023-02-02T11:50:56;101918.97;;;12.31;100.00
38812;BME280;24553;51.640;-0.752;2023-02-02T11:53:48;101911.66;;;12.50;100.00
38812;BME280;24553;51.640;-0.752;2023-02-02T11:56:21;101907.47;;;12.39;100.00
38812;BME280;24553;51.640;-0.752;2023-02-02T11:58:51;101904.50;;;12.34;100.00
38812;BME280;24553;51.640;-0.752;2023-02-02T12:01:32;101898.38;;;12.25;100.00
38812;BME280;24553;51.640;-0.752;2023-02-02T12:04:08;101895.22;;;12.30;100.00
38812;BME280;24553;51.640;-0.752;2023-02-02T12:06:46;101907.69;;;12.29;100.00
38812;BME280;24553;51.640;-0.752;2023-02-02T12:09:18;101888.53;;;12.34;100.00
38812;BME280;24553;51.640;-0.752;2023-02-02T12:17:41;101896.28;;;12.76;100.00
38812;BME280;24553;51.640;-0.752;2023-02-02T12:23:06;101890.19;;;12.51;100.00
38812;BME280;24553;51.640;-0.752;2023-02-02T12:33:53;101882.44;;;12.89;100.00
38812;BME280;24553;51.640;-0.752;2023-02-02T12:36:35;101880.72;;;13.04;100.00
38812;BME280;24553;51.640;-0.752;2023-02-02T12:39:38;101885.06;;;12.97;100.00
38812;BME280;24553;51.640;-0.752;2023-02-02T12:42:22;101872.66;;;12.81;100.00
38812;BME280;24553;51.640;-0.752;2023-02-02T12:55:21;101873.00;;;12.78;100.00
38812;BME280;24553;51.640;-0.752;2023-02-02T13:00:49;101896.47;;;12.66;100.00
38812;BME280;24553;51.640;-0.752;2023-02-02T13:03:24;101890.16;;;12.76;100.00
38812;BME280;24553;51.640;-0.752;2023-02-02T13:06:08;101893.66;;;12.52;100.00
38812;BME280;24553;51.640;-0.752;2023-02-02T13:11:30;101880.56;;;12.34;100.00
38812;BME280;24553;51.640;-0.752;2023-02-02T13:14:04;101870.75;;;12.26;100.00
38812;BME280;24553;51.640;-0.752;2023-02-02T13:16:34;101883.09;;;12.11;100.00
38812;BME280;24553;51.640;-0.752;2023-02-02T13:19:05;101871.81;;;12.09;100.00
38812;BME280;24553;51.640;-0.752;2023-02-02T13:21:31;101875.97;;;12.11;100.00
38812;BME280;24553;51.640;-0.752;2023-02-02T13:24:01;101875.44;;;12.08;100.00
38812;BME280;24553;51.640;-0.752;2023-02-02T13:26:31;101873.44;;;12.18;100.00
38812;BME280;24553;51.640;-0.752;2023-02-02T13:31:54;101884.56;;;12.38;100.00
38812;BME280;24553;51.640;-0.752;2023-02-02T13:34:34;101874.19;;;12.59;100.00
38812;BME280;24553;51.640;-0.752;2023-02-02T13:39:51;101881.88;;;12.46;100.00
38812;BME280;24553;51.640;-0.752;2023-02-02T13:42:35;101879.00;;;12.64;100.00
38812;BME280;24553;51.640;-0.752;2023-02-02T13:48:24;101882.72;;;12.55;100.00
38812;BME280;24553;51.640;-0.752;2023-02-02T13:51:04;101863.88;;;12.73;100.00
38812;BME280;24553;51.640;-0.752;2023-02-02T13:53:52;101857.69;;;12.80;100.00
38812;BME280;24553;51.640;-0.752;2023-02-02T14:01:40;101857.72;;;12.64;100.00
38812;BME280;24553;51.640;-0.752;2023-02-02T14:04:18;101854.59;;;12.60;100.00
38812;BME280;24553;51.640;-0.752;2023-02-02T14:07:14;101851.44;;;12.49;100.00
38812;BME280;24553;51.640;-0.752;2023-02-02T14:09:41;101860.28;;;12.41;100.00
38812;BME280;24553;51.640;-0.752;2023-02-02T14:12:08;101858.13;;;12.28;100.00
38812;BME280;24553;51.640;-0.752;2023-02-02T14:14:36;101858.75;;;12.47;100.00
38812;BME280;24553;51.640;-0.752;2023-02-02T14:19:52;101850.03;;;12.21;100.00
38812;BME280;24553;51.640;-0.752;2023-02-02T14:22:37;101846.53;;;12.13;100.00
38812;BME280;24553;51.640;-0.752;2023-02-02T14:25:37;101859.16;;;12.19;100.00
38812;BME280;24553;51.640;-0.752;2023-02-02T14:27:57;101850.16;;;12.28;100.00
38812;BME280;24553;51.640;-0.752;2023-02-02T14:30:28;101843.84;;;12.29;100.00